Terminal Aerodrome Forecast
Issued by NWS Brownsville, TX

Home | Current Version | Previous Version | Text Only | Print | Product List | Glossary On
Versions: 1 2 3 4 5 6 7 8 9 10 11 12 13 14 15 16
460
FTUS44 KBRO 172331
TAFBRO
TAF
KBRO 172331Z 1800/1824 13014G20KT P6SM FEW040
     FM180200 14010KT P6SM SKC
     FM180600 15006KT P6SM SCT020
     FM181500 15011KT P6SM SCT040
     FM181900 14013G20KT P6SM SCT045 SCT250=

USA.gov is the U.S. government's official web portal to all federal, state and local government web resources and services.